Terminal Aerodrome Forecast
Issued by NWS

Home | Current Version | Previous Version | Text Only | Print | Product List | Glossary On
Versions: 1 2 3 4 5 6 7 8 9 10 11 12 13 14 15 16 17 18 19 20 21 22 23 24 25 26 27 28
000
FTAK31 PANC 281729
TAFAAQ
TAF
PAAQ 281729Z 2818/2918 14011KT P6SM SCT060 OVC090
      TEMPO 2819/2822 14014G21KT
     FM282200 14014G21KT P6SM BKN070
     FM290700 13011KT P6SM VCSH BKN070=

USA.gov is the U.S. government's official web portal to all federal, state and local government web resources and services.